sensor_id;sensor_type;location;lat;lon;timestamp;P1;durP1;ratioP1;P2;durP2;ratioP2
13147;SDS011;6639;50.956;4.242;2023-02-13T00:01:00;29.63;;;22.88;;
13147;SDS011;6639;50.956;4.242;2023-02-13T00:03:27;24.88;;;20.42;;
13147;SDS011;6639;50.956;4.242;2023-02-13T00:05:55;31.60;;;22.80;;
13147;SDS011;6639;50.956;4.242;2023-02-13T00:08:22;29.50;;;22.20;;
13147;SDS011;6639;50.956;4.242;2023-02-13T00:10:49;25.95;;;19.02;;
13147;SDS011;6639;50.956;4.242;2023-02-13T00:13:17;28.48;;;20.42;;
13147;SDS011;6639;50.956;4.242;2023-02-13T00:15:44;18.85;;;15.73;;
13147;SDS011;6639;50.956;4.242;2023-02-13T00:18:11;17.15;;;14.55;;
13147;SDS011;6639;50.956;4.242;2023-02-13T00:20:38;22.85;;;16.77;;
13147;SDS011;6639;50.956;4.242;2023-02-13T00:23:05;24.67;;;19.90;;
13147;SDS011;6639;50.956;4.242;2023-02-13T00:25:32;33.00;;;22.83;;
13147;SDS011;6639;50.956;4.242;2023-02-13T00:27:59;32.45;;;24.45;;
13147;SDS011;6639;50.956;4.242;2023-02-13T00:30:27;33.00;;;22.73;;
13147;SDS011;6639;50.956;4.242;2023-02-13T00:32:54;31.02;;;22.90;;
13147;SDS011;6639;50.956;4.242;2023-02-13T00:35:21;32.30;;;23.42;;
13147;SDS011;6639;50.956;4.242;2023-02-13T00:37:48;32.35;;;24.17;;
13147;SDS011;6639;50.956;4.242;2023-02-13T00:40:14;29.23;;;22.02;;
13147;SDS011;6639;50.956;4.242;2023-02-13T00:42:41;26.65;;;20.58;;
13147;SDS011;6639;50.956;4.242;2023-02-13T00:45:11;26.23;;;20.38;;
13147;SDS011;6639;50.956;4.242;2023-02-13T00:47:39;29.75;;;21.30;;
13147;SDS011;6639;50.956;4.242;2023-02-13T00:50:06;30.98;;;20.73;;
13147;SDS011;6639;50.956;4.242;2023-02-13T00:52:33;28.38;;;20.92;;
13147;SDS011;6639;50.956;4.242;2023-02-13T00:55:00;24.75;;;19.40;;
13147;SDS011;6639;50.956;4.242;2023-02-13T00:57:27;23.20;;;17.40;;
13147;SDS011;6639;50.956;4.242;2023-02-13T00:59:55;22.90;;;17.80;;
13147;SDS011;6639;50.956;4.242;2023-02-13T01:02:23;20.83;;;15.73;;
13147;SDS011;6639;50.956;4.242;2023-02-13T01:04:51;18.27;;;14.57;;
13147;SDS011;6639;50.956;4.242;2023-02-13T01:07:18;26.60;;;19.13;;
13147;SDS011;6639;50.956;4.242;2023-02-13T01:09:45;25.08;;;19.58;;
13147;SDS011;6639;50.956;4.242;2023-02-13T01:12:12;22.25;;;16.90;;
13147;SDS011;6639;50.956;4.242;2023-02-13T01:14:39;17.95;;;15.30;;
13147;SDS011;6639;50.956;4.242;2023-02-13T01:17:08;19.83;;;15.40;;
13147;SDS011;6639;50.956;4.242;2023-02-13T01:19:35;20.25;;;16.23;;
13147;SDS011;6639;50.956;4.242;2023-02-13T01:22:05;23.05;;;18.27;;
13147;SDS011;6639;50.956;4.242;2023-02-13T01:24:33;27.73;;;20.23;;
13147;SDS011;6639;50.956;4.242;2023-02-13T01:27:00;26.80;;;19.52;;
13147;SDS011;6639;50.956;4.242;2023-02-13T01:29:27;26.25;;;19.58;;
13147;SDS011;6639;50.956;4.242;2023-02-13T01:31:54;29.77;;;19.70;;
13147;SDS011;6639;50.956;4.242;2023-02-13T01:34:21;30.40;;;22.08;;
13147;SDS011;6639;50.956;4.242;2023-02-13T01:36:48;31.83;;;23.30;;
13147;SDS011;6639;50.956;4.242;2023-02-13T01:39:17;30.83;;;23.10;;
13147;SDS011;6639;50.956;4.242;2023-02-13T01:41:44;36.05;;;25.45;;
13147;SDS011;6639;50.956;4.242;2023-02-13T01:47:11;36.67;;;24.83;;
13147;SDS011;6639;50.956;4.242;2023-02-13T01:49:41;33.60;;;22.67;;
13147;SDS011;6639;50.956;4.242;2023-02-13T01:52:11;35.30;;;22.80;;
13147;SDS011;6639;50.956;4.242;2023-02-13T01:54:40;32.28;;;23.70;;
13147;SDS011;6639;50.956;4.242;2023-02-13T01:57:08;33.38;;;23.08;;
13147;SDS011;6639;50.956;4.242;2023-02-13T01:59:41;35.38;;;23.98;;
13147;SDS011;6639;50.956;4.242;2023-02-13T02:02:11;34.03;;;24.05;;
13147;SDS011;6639;50.956;4.242;2023-02-13T02:04:40;38.53;;;27.23;;
13147;SDS011;6639;50.956;4.242;2023-02-13T02:07:09;48.70;;;30.90;;
13147;SDS011;6639;50.956;4.242;2023-02-13T02:09:41;44.42;;;30.70;;
13147;SDS011;6639;50.956;4.242;2023-02-13T02:12:12;50.08;;;32.33;;
13147;SDS011;6639;50.956;4.242;2023-02-13T02:14:48;37.50;;;26.77;;
13147;SDS011;6639;50.956;4.242;2023-02-13T02:17:18;38.28;;;28.50;;
13147;SDS011;6639;50.956;4.242;2023-02-13T02:19:48;36.00;;;25.83;;
13147;SDS011;6639;50.956;4.242;2023-02-13T02:22:30;28.95;;;23.15;;
13147;SDS011;6639;50.956;4.242;2023-02-13T02:25:30;25.75;;;20.63;;
13147;SDS011;6639;50.956;4.242;2023-02-13T02:28:17;24.42;;;20.67;;
13147;SDS011;6639;50.956;4.242;2023-02-13T02:31:20;30.83;;;21.77;;
13147;SDS011;6639;50.956;4.242;2023-02-13T02:34:13;32.85;;;21.98;;
13147;SDS011;6639;50.956;4.242;2023-02-13T02:36:54;45.95;;;28.05;;
13147;SDS011;6639;50.956;4.242;2023-02-13T02:39:32;47.05;;;30.33;;
13147;SDS011;6639;50.956;4.242;2023-02-13T02:42:11;54.75;;;26.42;;
13147;SDS011;6639;50.956;4.242;2023-02-13T02:44:50;30.77;;;22.48;;
13147;SDS011;6639;50.956;4.242;2023-02-13T02:47:25;29.10;;;22.80;;
13147;SDS011;6639;50.956;4.242;2023-02-13T02:50:23;28.80;;;21.83;;
13147;SDS011;6639;50.956;4.242;2023-02-13T02:52:58;28.15;;;22.35;;
13147;SDS011;6639;50.956;4.242;2023-02-13T02:55:35;27.55;;;20.98;;
13147;SDS011;6639;50.956;4.242;2023-02-13T02:58:08;28.73;;;19.60;;
13147;SDS011;6639;50.956;4.242;2023-02-13T03:00:56;25.45;;;19.38;;
13147;SDS011;6639;50.956;4.242;2023-02-13T03:03:44;28.05;;;20.60;;
13147;SDS011;6639;50.956;4.242;2023-02-13T03:06:33;33.55;;;22.58;;
13147;SDS011;6639;50.956;4.242;2023-02-13T03:09:08;31.15;;;23.02;;
13147;SDS011;6639;50.956;4.242;2023-02-13T03:11:56;42.63;;;28.63;;
13147;SDS011;6639;50.956;4.242;2023-02-13T03:14:41;41.33;;;28.67;;
13147;SDS011;6639;50.956;4.242;2023-02-13T03:17:09;44.47;;;26.00;;
13147;SDS011;6639;50.956;4.242;2023-02-13T03:19:57;42.38;;;26.27;;
13147;SDS011;6639;50.956;4.242;2023-02-13T03:22:57;32.78;;;23.50;;
13147;SDS011;6639;50.956;4.242;2023-02-13T03:25:34;32.92;;;23.58;;
13147;SDS011;6639;50.956;4.242;2023-02-13T03:28:09;52.92;;;25.35;;
13147;SDS011;6639;50.956;4.242;2023-02-13T03:31:01;39.25;;;23.88;;
13147;SDS011;6639;50.956;4.242;2023-02-13T03:33:42;41.55;;;23.20;;
13147;SDS011;6639;50.956;4.242;2023-02-13T03:36:25;45.47;;;23.58;;
13147;SDS011;6639;50.956;4.242;2023-02-13T03:39:19;34.47;;;22.38;;
13147;SDS011;6639;50.956;4.242;2023-02-13T03:41:52;44.28;;;24.52;;
13147;SDS011;6639;50.956;4.242;2023-02-13T03:44:24;33.65;;;24.17;;
13147;SDS011;6639;50.956;4.242;2023-02-13T03:46:57;34.58;;;22.60;;
13147;SDS011;6639;50.956;4.242;2023-02-13T03:49:26;30.00;;;22.35;;
13147;SDS011;6639;50.956;4.242;2023-02-13T03:52:15;28.85;;;22.45;;
13147;SDS011;6639;50.956;4.242;2023-02-13T03:54:49;39.92;;;23.75;;
13147;SDS011;6639;50.956;4.242;2023-02-13T03:57:37;44.35;;;21.15;;
13147;SDS011;6639;50.956;4.242;2023-02-13T04:00:26;29.02;;;19.45;;
13147;SDS011;6639;50.956;4.242;2023-02-13T04:03:00;26.95;;;20.30;;
13147;SDS011;6639;50.956;4.242;2023-02-13T04:05:38;57.88;;;21.90;;
13147;SDS011;6639;50.956;4.242;2023-02-13T04:08:08;26.33;;;20.45;;
13147;SDS011;6639;50.956;4.242;2023-02-13T04:10:38;39.83;;;22.42;;
13147;SDS011;6639;50.956;4.242;2023-02-13T04:13:13;32.33;;;21.90;;
13147;SDS011;6639;50.956;4.242;2023-02-13T04:15:45;35.97;;;24.90;;
13147;SDS011;6639;50.956;4.242;2023-02-13T04:18:17;40.60;;;24.80;;
13147;SDS011;6639;50.956;4.242;2023-02-13T04:20:47;32.42;;;23.42;;
13147;SDS011;6639;50.956;4.242;2023-02-13T04:23:14;31.35;;;22.98;;
13147;SDS011;6639;50.956;4.242;2023-02-13T04:25:44;25.50;;;20.90;;
13147;SDS011;6639;50.956;4.242;2023-02-13T04:28:13;39.63;;;21.65;;
13147;SDS011;6639;50.956;4.242;2023-02-13T04:30:41;35.50;;;21.83;;
13147;SDS011;6639;50.956;4.242;2023-02-13T04:33:09;56.47;;;24.17;;
13147;SDS011;6639;50.956;4.242;2023-02-13T04:35:36;44.97;;;24.02;;
13147;SDS011;6639;50.956;4.242;2023-02-13T04:38:03;38.70;;;23.73;;
13147;SDS011;6639;50.956;4.242;2023-02-13T04:40:30;28.20;;;23.17;;
13147;SDS011;6639;50.956;4.242;2023-02-13T04:42:58;29.60;;;22.20;;
13147;SDS011;6639;50.956;4.242;2023-02-13T04:45:25;43.58;;;23.50;;
13147;SDS011;6639;50.956;4.242;2023-02-13T04:47:53;41.95;;;22.70;;
13147;SDS011;6639;50.956;4.242;2023-02-13T04:50:21;43.53;;;22.80;;
13147;SDS011;6639;50.956;4.242;2023-02-13T04:52:49;29.23;;;20.25;;
13147;SDS011;6639;50.956;4.242;2023-02-13T04:55:19;27.27;;;20.80;;
13147;SDS011;6639;50.956;4.242;2023-02-13T04:57:46;38.85;;;22.90;;
13147;SDS011;6639;50.956;4.242;2023-02-13T05:00:15;24.98;;;21.25;;
13147;SDS011;6639;50.956;4.242;2023-02-13T05:02:43;56.20;;;20.98;;
13147;SDS011;6639;50.956;4.242;2023-02-13T05:05:10;27.90;;;21.08;;
13147;SDS011;6639;50.956;4.242;2023-02-13T05:07:37;24.27;;;19.63;;
13147;SDS011;6639;50.956;4.242;2023-02-13T05:10:04;23.63;;;18.60;;
13147;SDS011;6639;50.956;4.242;2023-02-13T05:12:32;23.25;;;18.40;;
13147;SDS011;6639;50.956;4.242;2023-02-13T05:14:59;23.73;;;18.75;;
13147;SDS011;6639;50.956;4.242;2023-02-13T05:17:28;21.50;;;18.65;;
13147;SDS011;6639;50.956;4.242;2023-02-13T05:19:55;29.40;;;17.50;;
13147;SDS011;6639;50.956;4.242;2023-02-13T05:22:23;22.25;;;18.63;;
13147;SDS011;6639;50.956;4.242;2023-02-13T05:25:07;20.50;;;18.30;;
13147;SDS011;6639;50.956;4.242;2023-02-13T05:27:34;20.95;;;17.85;;
13147;SDS011;6639;50.956;4.242;2023-02-13T05:30:01;17.63;;;15.50;;
13147;SDS011;6639;50.956;4.242;2023-02-13T05:32:31;21.95;;;17.15;;
13147;SDS011;6639;50.956;4.242;2023-02-13T05:34:58;32.17;;;16.55;;
13147;SDS011;6639;50.956;4.242;2023-02-13T05:37:25;22.50;;;17.17;;
13147;SDS011;6639;50.956;4.242;2023-02-13T05:39:53;22.02;;;16.65;;
13147;SDS011;6639;50.956;4.242;2023-02-13T05:42:21;18.90;;;16.90;;
13147;SDS011;6639;50.956;4.242;2023-02-13T05:44:49;17.70;;;15.70;;
13147;SDS011;6639;50.956;4.242;2023-02-13T05:47:17;16.98;;;15.27;;
13147;SDS011;6639;50.956;4.242;2023-02-13T05:49:45;18.35;;;16.45;;
13147;SDS011;6639;50.956;4.242;2023-02-13T05:52:12;18.17;;;16.27;;
13147;SDS011;6639;50.956;4.242;2023-02-13T05:54:39;17.20;;;15.25;;
13147;SDS011;6639;50.956;4.242;2023-02-13T05:57:07;17.02;;;15.27;;
13147;SDS011;6639;50.956;4.242;2023-02-13T05:59:34;19.58;;;17.58;;
13147;SDS011;6639;50.956;4.242;2023-02-13T06:02:01;18.38;;;16.38;;
13147;SDS011;6639;50.956;4.242;2023-02-13T06:04:30;18.67;;;16.67;;
13147;SDS011;6639;50.956;4.242;2023-02-13T06:06:59;18.38;;;15.93;;
13147;SDS011;6639;50.956;4.242;2023-02-13T06:09:26;18.87;;;16.87;;
13147;SDS011;6639;50.956;4.242;2023-02-13T06:11:58;18.60;;;16.60;;
13147;SDS011;6639;50.956;4.242;2023-02-13T06:14:25;18.05;;;16.15;;
13147;SDS011;6639;50.956;4.242;2023-02-13T06:16:52;19.88;;;16.17;;
13147;SDS011;6639;50.956;4.242;2023-02-13T06:19:19;18.73;;;16.67;;
13147;SDS011;6639;50.956;4.242;2023-02-13T06:21:47;18.92;;;16.88;;
13147;SDS011;6639;50.956;4.242;2023-02-13T06:24:16;18.10;;;16.23;;
13147;SDS011;6639;50.956;4.242;2023-02-13T06:26:43;17.35;;;15.52;;
13147;SDS011;6639;50.956;4.242;2023-02-13T06:29:10;18.35;;;16.45;;
13147;SDS011;6639;50.956;4.242;2023-02-13T06:31:38;19.15;;;17.13;;
13147;SDS011;6639;50.956;4.242;2023-02-13T06:34:07;18.02;;;16.13;;
13147;SDS011;6639;50.956;4.242;2023-02-13T06:36:35;20.48;;;17.08;;
13147;SDS011;6639;50.956;4.242;2023-02-13T06:39:02;18.65;;;16.65;;
13147;SDS011;6639;50.956;4.242;2023-02-13T06:41:31;19.42;;;17.00;;
13147;SDS011;6639;50.956;4.242;2023-02-13T06:43:59;23.25;;;18.23;;
13147;SDS011;6639;50.956;4.242;2023-02-13T06:46:26;20.90;;;18.03;;
13147;SDS011;6639;50.956;4.242;2023-02-13T06:48:53;19.63;;;17.05;;
13147;SDS011;6639;50.956;4.242;2023-02-13T06:51:27;21.83;;;18.57;;
13147;SDS011;6639;50.956;4.242;2023-02-13T06:53:54;19.63;;;17.35;;
13147;SDS011;6639;50.956;4.242;2023-02-13T06:56:22;22.17;;;17.73;;
13147;SDS011;6639;50.956;4.242;2023-02-13T06:58:51;21.58;;;18.35;;
13147;SDS011;6639;50.956;4.242;2023-02-13T07:01:19;22.90;;;17.77;;
13147;SDS011;6639;50.956;4.242;2023-02-13T07:04:00;21.93;;;17.53;;
13147;SDS011;6639;50.956;4.242;2023-02-13T07:06:45;19.77;;;17.10;;
13147;SDS011;6639;50.956;4.242;2023-02-13T07:09:15;20.83;;;17.07;;
13147;SDS011;6639;50.956;4.242;2023-02-13T07:11:42;22.02;;;17.88;;
13147;SDS011;6639;50.956;4.242;2023-02-13T07:14:11;20.83;;;17.63;;
13147;SDS011;6639;50.956;4.242;2023-02-13T07:16:38;18.80;;;16.60;;
13147;SDS011;6639;50.956;4.242;2023-02-13T07:19:05;17.47;;;15.60;;
13147;SDS011;6639;50.956;4.242;2023-02-13T07:21:32;21.50;;;16.73;;
13147;SDS011;6639;50.956;4.242;2023-02-13T07:24:02;17.42;;;15.20;;
13147;SDS011;6639;50.956;4.242;2023-02-13T07:26:29;19.90;;;16.57;;
13147;SDS011;6639;50.956;4.242;2023-02-13T07:28:56;18.03;;;16.13;;
13147;SDS011;6639;50.956;4.242;2023-02-13T07:31:25;18.67;;;15.88;;
13147;SDS011;6639;50.956;4.242;2023-02-13T07:33:55;20.63;;;16.97;;
13147;SDS011;6639;50.956;4.242;2023-02-13T07:36:22;18.90;;;16.35;;
13147;SDS011;6639;50.956;4.242;2023-02-13T07:38:50;17.53;;;15.70;;
13147;SDS011;6639;50.956;4.242;2023-02-13T07:41:20;18.37;;;16.47;;
13147;SDS011;6639;50.956;4.242;2023-02-13T07:43:50;19.30;;;16.45;;
13147;SDS011;6639;50.956;4.242;2023-02-13T07:46:17;17.58;;;15.60;;
13147;SDS011;6639;50.956;4.242;2023-02-13T07:48:45;20.02;;;16.63;;
13147;SDS011;6639;50.956;4.242;2023-02-13T07:51:13;17.75;;;15.98;;
13147;SDS011;6639;50.956;4.242;2023-02-13T07:53:40;17.58;;;15.77;;
13147;SDS011;6639;50.956;4.242;2023-02-13T07:56:08;17.55;;;15.68;;
13147;SDS011;6639;50.956;4.242;2023-02-13T07:58:36;18.52;;;16.55;;
13147;SDS011;6639;50.956;4.242;2023-02-13T08:01:05;19.85;;;17.50;;
13147;SDS011;6639;50.956;4.242;2023-02-13T08:03:33;20.15;;;17.20;;
13147;SDS011;6639;50.956;4.242;2023-02-13T08:06:03;19.30;;;17.25;;
13147;SDS011;6639;50.956;4.242;2023-02-13T08:08:32;19.48;;;17.33;;
13147;SDS011;6639;50.956;4.242;2023-02-13T08:11:02;19.63;;;16.10;;
13147;SDS011;6639;50.956;4.242;2023-02-13T08:13:49;18.05;;;16.15;;
13147;SDS011;6639;50.956;4.242;2023-02-13T08:16:16;17.65;;;15.68;;
13147;SDS011;6639;50.956;4.242;2023-02-13T08:18:43;18.10;;;16.40;;
13147;SDS011;6639;50.956;4.242;2023-02-13T08:21:11;21.67;;;16.25;;
13147;SDS011;6639;50.956;4.242;2023-02-13T08:23:39;18.20;;;16.40;;
13147;SDS011;6639;50.956;4.242;2023-02-13T08:26:06;17.20;;;15.50;;
13147;SDS011;6639;50.956;4.242;2023-02-13T08:28:33;19.77;;;15.98;;
13147;SDS011;6639;50.956;4.242;2023-02-13T08:31:00;20.17;;;18.08;;
13147;SDS011;6639;50.956;4.242;2023-02-13T08:33:27;21.50;;;19.38;;
13147;SDS011;6639;50.956;4.242;2023-02-13T08:35:55;18.63;;;16.73;;
13147;SDS011;6639;50.956;4.242;2023-02-13T08:38:23;19.33;;;17.42;;
13147;SDS011;6639;50.956;4.242;2023-02-13T08:40:50;20.60;;;18.42;;
13147;SDS011;6639;50.956;4.242;2023-02-13T08:43:18;20.63;;;18.58;;
13147;SDS011;6639;50.956;4.242;2023-02-13T08:45:44;21.33;;;19.13;;
13147;SDS011;6639;50.956;4.242;2023-02-13T08:48:11;22.15;;;19.83;;
13147;SDS011;6639;50.956;4.242;2023-02-13T08:50:38;21.73;;;18.98;;
13147;SDS011;6639;50.956;4.242;2023-02-13T08:53:05;22.95;;;20.45;;
13147;SDS011;6639;50.956;4.242;2023-02-13T08:55:35;21.90;;;19.80;;
13147;SDS011;6639;50.956;4.242;2023-02-13T08:58:02;21.52;;;19.50;;
13147;SDS011;6639;50.956;4.242;2023-02-13T09:00:30;21.75;;;19.65;;
13147;SDS011;6639;50.956;4.242;2023-02-13T09:02:59;21.52;;;19.40;;
13147;SDS011;6639;50.956;4.242;2023-02-13T09:05:27;22.00;;;19.90;;
13147;SDS011;6639;50.956;4.242;2023-02-13T09:07:58;21.23;;;19.00;;
13147;SDS011;6639;50.956;4.242;2023-02-13T09:10:26;21.23;;;19.10;;
13147;SDS011;6639;50.956;4.242;2023-02-13T09:12:55;21.00;;;19.05;;
13147;SDS011;6639;50.956;4.242;2023-02-13T09:15:22;23.10;;;20.77;;
13147;SDS011;6639;50.956;4.242;2023-02-13T09:17:49;22.58;;;20.48;;
13147;SDS011;6639;50.956;4.242;2023-02-13T09:20:16;23.75;;;21.05;;
13147;SDS011;6639;50.956;4.242;2023-02-13T09:22:43;21.92;;;19.83;;
13147;SDS011;6639;50.956;4.242;2023-02-13T09:25:10;22.70;;;20.38;;
13147;SDS011;6639;50.956;4.242;2023-02-13T09:27:37;26.92;;;20.88;;
13147;SDS011;6639;50.956;4.242;2023-02-13T09:30:06;23.10;;;19.80;;
13147;SDS011;6639;50.956;4.242;2023-02-13T09:32:36;22.48;;;20.10;;
13147;SDS011;6639;50.956;4.242;2023-02-13T09:35:03;22.13;;;19.80;;
13147;SDS011;6639;50.956;4.242;2023-02-13T09:37:31;21.83;;;19.63;;
13147;SDS011;6639;50.956;4.242;2023-02-13T09:39:58;20.88;;;18.73;;
13147;SDS011;6639;50.956;4.242;2023-02-13T09:42:26;20.17;;;18.25;;
13147;SDS011;6639;50.956;4.242;2023-02-13T09:44:57;20.70;;;18.67;;
13147;SDS011;6639;50.956;4.242;2023-02-13T09:47:30;20.63;;;18.63;;
13147;SDS011;6639;50.956;4.242;2023-02-13T09:49:58;19.85;;;17.85;;
13147;SDS011;6639;50.956;4.242;2023-02-13T09:52:31;18.90;;;17.10;;
13147;SDS011;6639;50.956;4.242;2023-02-13T09:54:59;20.75;;;18.73;;
13147;SDS011;6639;50.956;4.242;2023-02-13T09:57:27;21.77;;;19.58;;
13147;SDS011;6639;50.956;4.242;2023-02-13T10:00:01;21.48;;;19.50;;
13147;SDS011;6639;50.956;4.242;2023-02-13T10:02:44;21.35;;;19.08;;
13147;SDS011;6639;50.956;4.242;2023-02-13T10:05:25;20.35;;;18.35;;
13147;SDS011;6639;50.956;4.242;2023-02-13T10:08:08;18.90;;;17.10;;
13147;SDS011;6639;50.956;4.242;2023-02-13T10:10:47;19.52;;;17.52;;
13147;SDS011;6639;50.956;4.242;2023-02-13T10:16:16;19.63;;;17.70;;
13147;SDS011;6639;50.956;4.242;2023-02-13T10:18:48;20.02;;;17.23;;
13147;SDS011;6639;50.956;4.242;2023-02-13T10:21:19;19.95;;;17.80;;
13147;SDS011;6639;50.956;4.242;2023-02-13T10:23:50;18.25;;;16.45;;
13147;SDS011;6639;50.956;4.242;2023-02-13T10:26:24;18.98;;;17.10;;
13147;SDS011;6639;50.956;4.242;2023-02-13T10:29:08;19.05;;;17.13;;
13147;SDS011;6639;50.956;4.242;2023-02-13T10:31:59;16.85;;;15.25;;
13147;SDS011;6639;50.956;4.242;2023-02-13T10:34:33;16.15;;;14.57;;
13147;SDS011;6639;50.956;4.242;2023-02-13T10:37:07;14.63;;;13.13;;
13147;SDS011;6639;50.956;4.242;2023-02-13T10:39:39;14.85;;;13.10;;
13147;SDS011;6639;50.956;4.242;2023-02-13T10:42:11;15.55;;;13.90;;
13147;SDS011;6639;50.956;4.242;2023-02-13T10:44:53;15.18;;;13.68;;
13147;SDS011;6639;50.956;4.242;2023-02-13T10:47:32;13.88;;;12.48;;
13147;SDS011;6639;50.956;4.242;2023-02-13T10:50:19;13.25;;;11.85;;
13147;SDS011;6639;50.956;4.242;2023-02-13T10:52:54;13.68;;;12.27;;
13147;SDS011;6639;50.956;4.242;2023-02-13T10:55:35;13.65;;;12.35;;
13147;SDS011;6639;50.956;4.242;2023-02-13T10:58:26;12.27;;;10.98;;
13147;SDS011;6639;50.956;4.242;2023-02-13T11:01:06;12.75;;;11.45;;
13147;SDS011;6639;50.956;4.242;2023-02-13T11:03:38;13.27;;;11.88;;
13147;SDS011;6639;50.956;4.242;2023-02-13T11:06:07;12.80;;;11.50;;
13147;SDS011;6639;50.956;4.242;2023-02-13T11:08:40;13.13;;;11.88;;
13147;SDS011;6639;50.956;4.242;2023-02-13T11:14:09;14.15;;;12.77;;
13147;SDS011;6639;50.956;4.242;2023-02-13T11:16:38;14.15;;;12.55;;
13147;SDS011;6639;50.956;4.242;2023-02-13T11:19:13;13.05;;;11.80;;
13147;SDS011;6639;50.956;4.242;2023-02-13T11:21:44;14.23;;;12.73;;
13147;SDS011;6639;50.956;4.242;2023-02-13T11:24:16;13.32;;;11.93;;
13147;SDS011;6639;50.956;4.242;2023-02-13T11:26:48;14.10;;;12.68;;
13147;SDS011;6639;50.956;4.242;2023-02-13T11:29:20;13.30;;;12.00;;
13147;SDS011;6639;50.956;4.242;2023-02-13T11:32:00;13.73;;;12.35;;
13147;SDS011;6639;50.956;4.242;2023-02-13T11:34:30;14.25;;;12.15;;
13147;SDS011;6639;50.956;4.242;2023-02-13T11:37:17;14.18;;;12.65;;
13147;SDS011;6639;50.956;4.242;2023-02-13T11:39:50;13.88;;;12.32;;
13147;SDS011;6639;50.956;4.242;2023-02-13T11:42:20;12.93;;;11.55;;
13147;SDS011;6639;50.956;4.242;2023-02-13T11:44:51;14.50;;;12.80;;
13147;SDS011;6639;50.956;4.242;2023-02-13T11:47:36;13.82;;;12.43;;
13147;SDS011;6639;50.956;4.242;2023-02-13T11:50:06;14.73;;;12.45;;
13147;SDS011;6639;50.956;4.242;2023-02-13T11:52:53;13.40;;;12.02;;
13147;SDS011;6639;50.956;4.242;2023-02-13T11:55:30;15.25;;;13.82;;
13147;SDS011;6639;50.956;4.242;2023-02-13T11:57:59;13.13;;;11.77;;
13147;SDS011;6639;50.956;4.242;2023-02-13T12:00:30;13.23;;;11.93;;
13147;SDS011;6639;50.956;4.242;2023-02-13T12:03:02;14.65;;;13.15;;
13147;SDS011;6639;50.956;4.242;2023-02-13T12:05:58;15.27;;;13.68;;
13147;SDS011;6639;50.956;4.242;2023-02-13T12:08:28;14.65;;;13.15;;
13147;SDS011;6639;50.956;4.242;2023-02-13T12:10:57;14.75;;;12.68;;
13147;SDS011;6639;50.956;4.242;2023-02-13T12:13:28;17.52;;;14.18;;
13147;SDS011;6639;50.956;4.242;2023-02-13T12:15:59;15.40;;;13.82;;
13147;SDS011;6639;50.956;4.242;2023-02-13T12:18:30;14.45;;;12.93;;
13147;SDS011;6639;50.956;4.242;2023-02-13T12:21:02;14.52;;;13.05;;
13147;SDS011;6639;50.956;4.242;2023-02-13T12:23:37;15.43;;;13.80;;
13147;SDS011;6639;50.956;4.242;2023-02-13T12:26:13;15.05;;;13.63;;
13147;SDS011;6639;50.956;4.242;2023-02-13T12:28:56;14.50;;;12.98;;
13147;SDS011;6639;50.956;4.242;2023-02-13T12:31:39;13.82;;;12.43;;
13147;SDS011;6639;50.956;4.242;2023-02-13T12:34:34;15.15;;;13.75;;
13147;SDS011;6639;50.956;4.242;2023-02-13T12:37:24;16.73;;;14.43;;
13147;SDS011;6639;50.956;4.242;2023-02-13T12:40:05;14.60;;;13.20;;
13147;SDS011;6639;50.956;4.242;2023-02-13T12:42:54;15.38;;;13.77;;
13147;SDS011;6639;50.956;4.242;2023-02-13T12:45:35;17.55;;;14.98;;
13147;SDS011;6639;50.956;4.242;2023-02-13T12:48:15;17.20;;;15.40;;
13147;SDS011;6639;50.956;4.242;2023-02-13T12:51:00;17.65;;;15.32;;
13147;SDS011;6639;50.956;4.242;2023-02-13T12:56:40;17.88;;;16.05;;
13147;SDS011;6639;50.956;4.242;2023-02-13T12:59:32;19.60;;;16.60;;
13147;SDS011;6639;50.956;4.242;2023-02-13T13:05:23;17.35;;;15.65;;
13147;SDS011;6639;50.956;4.242;2023-02-13T13:08:21;17.10;;;15.43;;
13147;SDS011;6639;50.956;4.242;2023-02-13T13:11:01;18.42;;;16.52;;
13147;SDS011;6639;50.956;4.242;2023-02-13T13:13:42;16.58;;;14.93;;
13147;SDS011;6639;50.956;4.242;2023-02-13T13:16:19;16.15;;;14.43;;
13147;SDS011;6639;50.956;4.242;2023-02-13T13:18:56;16.50;;;14.90;;
13147;SDS011;6639;50.956;4.242;2023-02-13T13:21:33;16.55;;;14.13;;
13147;SDS011;6639;50.956;4.242;2023-02-13T13:24:06;15.93;;;13.25;;
13147;SDS011;6639;50.956;4.242;2023-02-13T13:26:43;15.85;;;13.55;;
13147;SDS011;6639;50.956;4.242;2023-02-13T13:29:16;15.25;;;13.65;;
13147;SDS011;6639;50.956;4.242;2023-02-13T13:31:48;15.63;;;13.93;;
13147;SDS011;6639;50.956;4.242;2023-02-13T13:34:20;14.65;;;13.23;;
13147;SDS011;6639;50.956;4.242;2023-02-13T13:36:50;14.15;;;12.68;;
13147;SDS011;6639;50.956;4.242;2023-02-13T13:39:33;13.63;;;12.20;;
13147;SDS011;6639;50.956;4.242;2023-02-13T13:42:08;15.88;;;13.18;;
13147;SDS011;6639;50.956;4.242;2023-02-13T13:47:38;14.20;;;12.55;;
13147;SDS011;6639;50.956;4.242;2023-02-13T13:50:16;15.20;;;13.65;;
13147;SDS011;6639;50.956;4.242;2023-02-13T13:53:07;15.07;;;13.40;;
13147;SDS011;6639;50.956;4.242;2023-02-13T13:58:30;13.55;;;11.77;;
13147;SDS011;6639;50.956;4.242;2023-02-13T14:03:51;12.98;;;11.63;;
13147;SDS011;6639;50.956;4.242;2023-02-13T14:06:19;13.93;;;11.68;;
13147;SDS011;6639;50.956;4.242;2023-02-13T14:08:58;14.35;;;11.95;;
13147;SDS011;6639;50.956;4.242;2023-02-13T14:11:41;13.73;;;11.70;;
13147;SDS011;6639;50.956;4.242;2023-02-13T14:20:34;11.63;;;10.43;;
13147;SDS011;6639;50.956;4.242;2023-02-13T14:26:09;14.13;;;10.65;;
13147;SDS011;6639;50.956;4.242;2023-02-13T14:28:55;13.10;;;11.48;;
13147;SDS011;6639;50.956;4.242;2023-02-13T14:31:38;12.27;;;11.02;;
13147;SDS011;6639;50.956;4.242;2023-02-13T14:34:16;12.32;;;11.02;;
13147;SDS011;6639;50.956;4.242;2023-02-13T14:36:47;11.02;;;9.82;;
13147;SDS011;6639;50.956;4.242;2023-02-13T14:39:31;11.38;;;10.00;;
13147;SDS011;6639;50.956;4.242;2023-02-13T14:42:00;10.82;;;9.57;;
13147;SDS011;6639;50.956;4.242;2023-02-13T14:44:30;11.52;;;10.35;;
13147;SDS011;6639;50.956;4.242;2023-02-13T14:47:02;10.85;;;9.95;;
13147;SDS011;6639;50.956;4.242;2023-02-13T14:49:33;10.90;;;9.77;;
13147;SDS011;6639;50.956;4.242;2023-02-13T14:52:04;11.93;;;10.68;;
13147;SDS011;6639;50.956;4.242;2023-02-13T14:54:33;11.18;;;10.10;;
13147;SDS011;6639;50.956;4.242;2023-02-13T14:57:05;10.77;;;9.77;;
13147;SDS011;6639;50.956;4.242;2023-02-13T14:59:41;10.80;;;9.80;;
13147;SDS011;6639;50.956;4.242;2023-02-13T15:02:14;11.80;;;9.95;;
13147;SDS011;6639;50.956;4.242;2023-02-13T15:04:50;10.25;;;9.25;;
13147;SDS011;6639;50.956;4.242;2023-02-13T15:07:22;13.52;;;10.32;;
13147;SDS011;6639;50.956;4.242;2023-02-13T15:09:53;11.10;;;10.00;;
13147;SDS011;6639;50.956;4.242;2023-02-13T15:12:28;11.57;;;10.15;;
13147;SDS011;6639;50.956;4.242;2023-02-13T15:14:57;10.85;;;9.85;;
13147;SDS011;6639;50.956;4.242;2023-02-13T15:17:26;10.73;;;9.40;;
13147;SDS011;6639;50.956;4.242;2023-02-13T15:19:59;10.02;;;9.10;;
13147;SDS011;6639;50.956;4.242;2023-02-13T15:22:31;10.43;;;9.38;;
13147;SDS011;6639;50.956;4.242;2023-02-13T15:25:01;10.13;;;9.18;;
13147;SDS011;6639;50.956;4.242;2023-02-13T15:27:29;12.32;;;9.63;;
13147;SDS011;6639;50.956;4.242;2023-02-13T15:29:59;9.25;;;8.35;;
13147;SDS011;6639;50.956;4.242;2023-02-13T15:32:31;9.55;;;8.65;;
13147;SDS011;6639;50.956;4.242;2023-02-13T15:35:05;10.10;;;9.18;;
13147;SDS011;6639;50.956;4.242;2023-02-13T15:37:46;9.88;;;8.88;;
13147;SDS011;6639;50.956;4.242;2023-02-13T15:40:13;9.18;;;8.38;;